Time;durP1;ratioP1;P1;durP2;ratioP2;P2;SDS_P1;SDS_P2;PMS_P1;PMS_P2;Temp;Humidity;BMP_temperature;BMP_pressure;BME280_temperature;BME280_humidity;BME280_pressure;Samples;Min_cycle;Max_cycle;Signal;HPM_P1;HPM_P2
2022/01/23 00:00:35;;;;;;;20.52;10.75;;;4.70;98.30;;;;;;5019753;28;20013;-71
2022/01/23 00:03:08;;;;;;;22.40;11.75;;;4.70;98.30;;;;;;5022180;28;20358;-72
2022/01/23 00:05:37;;;;;;;24.60;11.32;;;4.80;98.30;;;;;;5029155;28;20026;-71
2022/01/23 00:08:03;;;;;;;23.85;11.57;;;4.70;98.30;;;;;;5026731;28;20028;-72
2022/01/23 00:10:29;;;;;;;23.50;11.77;;;4.70;98.30;;;;;;5026645;28;20033;-72
2022/01/23 00:13:07;;;;;;;25.98;12.32;;;4.80;98.30;;;;;;5014605;28;20025;-71
2022/01/23 00:18:17;;;;;;;21.38;11.18;;;4.80;98.30;;;;;;5023058;28;20121;-72
2022/01/23 00:20:43;;;;;;;18.48;9.88;;;4.80;98.30;;;;;;5027137;28;20030;-71
2022/01/23 00:23:21;;;;;;;27.05;11.35;;;4.80;98.30;;;;;;5024622;28;20038;-71
2022/01/23 00:31:14;;;;;;;23.42;10.90;;;4.80;98.30;;;;;;5032803;28;20041;-71
2022/01/23 00:33:40;;;;;;;24.75;11.25;;;4.80;98.30;;;;;;5036230;28;20457;-71
2022/01/23 00:36:05;;;;;;;26.00;11.35;;;4.80;98.40;;;;;;5027155;28;20052;-71
2022/01/23 00:38:31;;;;;;;24.15;11.23;;;4.80;98.40;;;;;;5024094;28;20025;-71
2022/01/23 00:40:56;;;;;;;25.02;11.75;;;4.80;98.40;;;;;;5025530;28;20030;-71
2022/01/23 00:43:33;;;;;;;24.63;11.30;;;4.80;98.40;;;;;;5025618;28;20049;-71
2022/01/23 00:46:21;;;;;;;25.63;11.02;;;4.80;98.40;;;;;;5024710;28;20029;-71
2022/01/23 00:51:32;;;;;;;20.70;10.27;;;4.80;98.40;;;;;;5034222;28;20479;-71
2022/01/23 00:54:00;;;;;;;22.20;9.43;;;4.80;98.40;;;;;;5023387;28;20025;-71
2022/01/23 00:56:26;;;;;;;21.13;10.73;;;4.80;98.40;;;;;;5032185;28;20052;-71
2022/01/23 00:58:52;;;;;;;21.40;10.07;;;4.80;98.40;;;;;;5017594;28;20029;-72
2022/01/23 01:01:18;;;;;;;20.83;10.10;;;4.80;98.40;;;;;;5024292;28;20026;-71
2022/01/23 01:03:43;;;;;;;19.70;8.93;;;4.90;98.40;;;;;;5028858;28;20034;-71
2022/01/23 01:06:09;;;;;;;20.73;9.80;;;4.80;98.40;;;;;;5034096;28;20101;-71
2022/01/23 01:08:35;;;;;;;26.65;10.15;;;4.90;98.40;;;;;;5024833;28;20084;-71
2022/01/23 01:33:26;;;;;;;19.10;9.65;;;4.80;98.40;;;;;;5020854;28;20071;-71
2022/01/23 01:35:29;;;;;;;18.13;9.63;;;4.80;98.40;;;;;;5022108;28;20142;-71
2022/01/23 01:37:55;;;;;;;20.15;9.70;;;4.80;98.40;;;;;;5025795;28;20108;-71
2022/01/23 01:40:22;;;;;;;16.40;8.20;;;4.90;98.40;;;;;;5029815;28;20148;-71
2022/01/23 01:42:47;;;;;;;22.92;10.07;;;4.90;98.50;;;;;;5031348;28;20022;-72
2022/01/23 01:45:13;;;;;;;22.48;9.85;;;4.90;98.40;;;;;;5023600;28;20796;-71
2022/01/23 01:47:50;;;;;;;18.38;9.55;;;4.90;98.40;;;;;;5021669;28;20029;-71
2022/01/23 01:50:16;;;;;;;17.50;10.00;;;4.90;98.40;;;;;;5024520;28;20036;-71
2022/01/23 01:52:42;;;;;;;18.35;9.93;;;4.90;98.40;;;;;;5018018;28;20021;-71
2022/01/23 01:55:10;;;;;;;20.88;9.80;;;4.90;98.30;;;;;;5036768;28;20104;-71
2022/01/23 01:57:43;;;;;;;18.65;9.20;;;4.90;98.30;;;;;;5029187;28;20072;-71
2022/01/23 02:03:21;;;;;;;21.17;8.98;;;4.90;98.30;;;;;;5029615;28;20425;-71
2022/01/23 02:08:28;;;;;;;18.90;9.02;;;4.90;98.30;;;;;;5025494;28;20413;-71
2022/01/23 02:14:07;;;;;;;16.42;9.20;;;4.90;98.40;;;;;;5033615;28;20483;-71
2022/01/23 02:17:00;;;;;;;20.15;9.10;;;4.90;98.40;;;;;;5026663;28;20052;-71
2022/01/23 02:50:38;;;;;;;19.17;9.70;;;4.90;98.40;;;;;;5016799;28;20041;-71
2022/01/23 02:52:51;;;;;;;15.25;7.90;;;4.90;98.50;;;;;;5028420;28;20037;-71
2022/01/23 02:55:25;;;;;;;21.27;8.70;;;4.90;98.50;;;;;;5033139;28;20032;-71
2022/01/23 02:57:54;;;;;;;15.23;7.60;;;4.90;98.50;;;;;;5030305;28;20588;-71
2022/01/23 03:00:21;;;;;;;16.48;7.90;;;4.90;98.50;;;;;;5027971;28;20064;-71
2022/01/23 03:02:50;;;;;;;14.88;8.00;;;4.90;98.50;;;;;;5031751;28;20047;-72
2022/01/23 03:08:23;;;;;;;18.88;8.23;;;4.90;98.50;;;;;;5030368;28;20267;-71
2022/01/23 03:11:01;;;;;;;13.95;8.57;;;4.90;98.50;;;;;;5032538;28;20030;-71
2022/01/23 03:24:27;;;;;;;13.20;6.93;;;4.90;98.50;;;;;;5029010;28;20360;-71
2022/01/23 03:34:47;;;;;;;12.75;7.07;;;4.90;98.50;;;;;;5031924;28;20115;-71
2022/01/23 03:37:12;;;;;;;13.60;8.35;;;4.90;98.50;;;;;;5027867;28;20113;-71
2022/01/23 03:39:38;;;;;;;13.50;7.93;;;4.90;98.50;;;;;;5032510;28;20376;-71
2022/01/23 03:42:04;;;;;;;14.98;7.80;;;4.90;98.50;;;;;;5028955;28;20026;-71
2022/01/23 03:44:30;;;;;;;12.70;8.23;;;4.90;98.50;;;;;;5027598;28;20021;-71
2022/01/23 03:49:31;;;;;;;14.35;8.23;;;4.90;98.60;;;;;;5026936;28;20021;-71
2022/01/23 03:51:58;;;;;;;13.23;7.07;;;4.90;98.50;;;;;;5029005;28;20041;-72
2022/01/23 03:54:24;;;;;;;15.90;8.45;;;5.00;98.60;;;;;;5028446;28;20049;-71
2022/01/23 03:56:50;;;;;;;14.93;8.00;;;5.00;98.60;;;;;;5022865;28;20455;-71
2022/01/23 03:59:15;;;;;;;17.40;8.18;;;4.90;98.60;;;;;;5018222;28;20109;-71
2022/01/23 04:01:41;;;;;;;13.23;7.57;;;4.90;98.60;;;;;;5038423;28;20528;-71
2022/01/23 04:04:20;;;;;;;17.52;8.30;;;5.00;98.60;;;;;;5025561;28;20040;-71
2022/01/23 04:06:45;;;;;;;13.15;7.97;;;5.00;98.60;;;;;;5026601;28;20029;-71
2022/01/23 04:09:11;;;;;;;14.43;8.05;;;5.00;98.60;;;;;;5030394;28;20026;-71
2022/01/23 04:11:36;;;;;;;17.05;8.43;;;5.00;98.60;;;;;;5025351;28;20025;-71
2022/01/23 04:14:07;;;;;;;13.23;8.13;;;5.00;98.60;;;;;;5029815;28;20036;-71
2022/01/23 04:17:05;;;;;;;15.70;6.95;;;5.00;98.60;;;;;;5022375;28;20073;-71
2022/01/23 04:45:12;;;;;;;11.55;6.53;;;5.00;98.70;;;;;;5040057;28;20021;-71
2022/01/23 05:00:22;;;;;;;10.55;6.57;;;5.00;98.70;;;;;;5036042;28;20099;-71
2022/01/23 05:05:32;;;;;;;15.52;7.05;;;5.10;98.70;;;;;;5037291;28;20036;-71
2022/01/23 05:08:00;;;;;;;11.90;7.25;;;5.00;98.70;;;;;;5027952;28;20026;-71
2022/01/23 05:10:26;;;;;;;11.73;6.20;;;5.10;98.70;;;;;;5035624;28;20028;-71
2022/01/23 05:12:51;;;;;;;11.43;6.95;;;5.00;98.70;;;;;;5031842;28;20025;-72
2022/01/23 05:15:17;;;;;;;12.40;7.07;;;5.10;98.70;;;;;;5031010;28;20050;-71
2022/01/23 05:17:43;;;;;;;18.90;8.00;;;5.10;98.70;;;;;;5031618;28;20372;-71
2022/01/23 05:20:11;;;;;;;13.32;7.75;;;5.10;98.70;;;;;;5036495;28;20041;-72
2022/01/23 05:22:42;;;;;;;10.95;6.68;;;5.10;98.70;;;;;;5029241;28;20047;-71
2022/01/23 05:25:21;;;;;;;13.20;6.93;;;5.10;98.80;;;;;;5026973;28;20112;-71
2022/01/23 05:27:52;;;;;;;13.40;7.05;;;5.10;98.70;;;;;;5033355;28;20044;-71
2022/01/23 05:30:19;;;;;;;14.10;7.03;;;5.10;98.80;;;;;;5031691;28;20124;-71
2022/01/23 05:32:44;;;;;;;14.15;7.45;;;5.10;98.80;;;;;;5029482;28;20029;-71
2022/01/23 05:35:12;;;;;;;15.52;8.30;;;5.10;98.80;;;;;;5031930;28;20569;-71
2022/01/23 05:37:38;;;;;;;14.32;7.40;;;5.10;98.80;;;;;;5021883;28;20041;-71
2022/01/23 05:40:11;;;;;;;11.95;6.90;;;5.10;98.80;;;;;;5033970;28;20587;-71
2022/01/23 05:42:37;;;;;;;16.38;7.78;;;5.10;98.80;;;;;;5029976;28;20026;-71
2022/01/23 05:45:03;;;;;;;18.60;8.02;;;5.10;98.80;;;;;;5028173;28;20033;-71
2022/01/23 05:47:28;;;;;;;13.27;7.55;;;5.10;98.80;;;;;;5027947;28;20164;-71
2022/01/23 05:49:54;;;;;;;16.92;8.10;;;5.10;98.80;;;;;;5023334;28;20108;-71
2022/01/23 05:52:19;;;;;;;17.77;8.05;;;5.10;98.80;;;;;;5024348;28;20042;-71
2022/01/23 05:54:45;;;;;;;15.80;7.43;;;5.10;98.80;;;;;;5031589;28;20025;-71
2022/01/23 05:57:11;;;;;;;18.08;8.85;;;5.10;98.80;;;;;;5027376;28;20033;-71
2022/01/23 05:59:36;;;;;;;18.70;7.85;;;5.10;98.80;;;;;;5024916;28;20624;-71
2022/01/23 06:02:02;;;;;;;16.85;8.07;;;5.20;98.80;;;;;;5027205;28;20030;-71
2022/01/23 06:04:28;;;;;;;16.73;8.07;;;5.20;98.90;;;;;;5028820;28;20029;-71
2022/01/23 06:06:56;;;;;;;16.83;8.25;;;5.20;98.90;;;;;;5021165;28;20084;-71
2022/01/23 06:09:22;;;;;;;23.55;9.15;;;5.20;98.90;;;;;;5018545;28;20037;-71
2022/01/23 06:11:48;;;;;;;19.90;8.32;;;5.20;98.90;;;;;;5032285;28;20022;-71
2022/01/23 06:14:13;;;;;;;18.10;7.88;;;5.20;98.80;;;;;;5020112;28;20053;-71
2022/01/23 06:16:39;;;;;;;22.02;9.05;;;5.20;98.90;;;;;;5030815;28;20465;-71
2022/01/23 06:19:05;;;;;;;22.20;8.65;;;5.20;98.90;;;;;;5028252;28;20105;-71
2022/01/23 06:21:32;;;;;;;23.05;8.43;;;5.20;98.90;;;;;;5023426;28;20118;-71
2022/01/23 06:24:09;;;;;;;20.85;8.85;;;5.20;98.90;;;;;;5025105;28;20464;-71
2022/01/23 06:26:46;;;;;;;18.00;8.18;;;5.20;98.90;;;;;;5035405;28;20170;-71
2022/01/23 06:29:14;;;;;;;23.85;9.57;;;5.30;98.90;;;;;;5023842;28;20117;-73
2022/01/23 06:31:41;;;;;;;29.65;9.35;;;5.20;98.90;;;;;;5031099;28;20076;-73
2022/01/23 06:34:08;;;;;;;22.88;9.07;;;5.20;98.90;;;;;;5026318;28;20025;-73
2022/01/23 06:36:34;;;;;;;24.88;10.13;;;5.20;98.90;;;;;;5026327;28;20042;-73
2022/01/23 06:39:01;;;;;;;25.75;10.15;;;5.30;98.90;;;;;;5022962;28;20461;-73
2022/01/23 06:41:27;;;;;;;26.55;10.48;;;5.30;98.90;;;;;;5017457;28;20021;-73
2022/01/23 06:43:52;;;;;;;19.25;8.93;;;5.30;98.90;;;;;;5021542;28;20029;-73
2022/01/23 06:46:18;;;;;;;23.98;10.20;;;5.30;98.90;;;;;;5028684;28;20033;-73
2022/01/23 06:48:43;;;;;;;23.48;10.07;;;5.30;98.90;;;;;;5020794;28;20083;-73
2022/01/23 06:51:09;;;;;;;27.92;10.68;;;5.30;98.90;;;;;;5030272;28;20099;-73
2022/01/23 06:53:34;;;;;;;30.20;10.15;;;5.30;98.90;;;;;;5023607;28;20407;-73
2022/01/23 06:56:00;;;;;;;23.90;9.55;;;5.30;98.90;;;;;;5024691;28;20068;-73
2022/01/23 06:58:25;;;;;;;30.70;9.95;;;5.30;98.90;;;;;;5015553;28;20026;-73
2022/01/23 07:00:51;;;;;;;25.42;10.18;;;5.30;98.90;;;;;;5029203;28;20112;-74
2022/01/23 07:03:16;;;;;;;29.58;10.73;;;5.30;98.90;;;;;;5025904;28;20079;-73
2022/01/23 07:05:42;;;;;;;28.10;10.75;;;5.30;98.90;;;;;;5026485;28;20116;-73
2022/01/23 07:08:07;;;;;;;26.77;10.32;;;5.30;98.90;;;;;;5025183;28;20469;-73
2022/01/23 07:10:33;;;;;;;26.63;10.68;;;5.30;98.90;;;;;;5022871;28;20037;-73
2022/01/23 07:12:58;;;;;;;29.42;11.07;;;5.30;99.00;;;;;;5020634;28;20427;-73
2022/01/23 07:15:24;;;;;;;35.08;11.70;;;5.30;99.00;;;;;;5028063;28;20049;-73
2022/01/23 07:17:51;;;;;;;31.02;11.00;;;5.30;99.00;;;;;;5022985;28;20056;-73
2022/01/23 07:20:16;;;;;;;31.48;11.27;;;5.30;99.00;;;;;;5028206;28;20049;-73
2022/01/23 07:22:42;;;;;;;32.63;12.13;;;5.30;99.00;;;;;;5024979;28;20072;-73
2022/01/23 07:25:07;;;;;;;34.17;11.43;;;5.30;99.00;;;;;;5027932;28;20018;-73
2022/01/23 07:27:38;;;;;;;39.75;12.27;;;5.30;99.00;;;;;;5018799;28;20036;-73
2022/01/23 07:30:07;;;;;;;30.88;11.45;;;5.30;99.00;;;;;;5017806;28;20090;-73
2022/01/23 07:32:33;;;;;;;35.55;11.93;;;5.30;99.00;;;;;;5019875;28;20033;-73
2022/01/23 07:34:58;;;;;;;39.47;12.70;;;5.40;99.00;;;;;;5015929;28;20464;-73
2022/01/23 07:37:24;;;;;;;40.40;12.25;;;5.40;99.00;;;;;;5028653;28;20032;-73
2022/01/23 07:39:49;;;;;;;47.50;12.40;;;5.40;99.00;;;;;;5019315;28;20030;-73
2022/01/23 07:42:15;;;;;;;52.80;13.25;;;5.40;99.00;;;;;;5017398;28;20079;-73
2022/01/23 07:44:40;;;;;;;49.42;11.90;;;5.40;99.00;;;;;;5018053;28;20025;-73
2022/01/23 07:47:06;;;;;;;45.67;13.43;;;5.40;99.00;;;;;;5027576;28;20030;-73
2022/01/23 07:49:32;;;;;;;41.40;12.43;;;5.40;99.00;;;;;;4995409;28;20074;-73
2022/01/23 07:51:59;;;;;;;42.63;12.95;;;5.40;99.00;;;;;;4986298;28;20065;-73
2022/01/23 07:54:25;;;;;;;39.15;12.77;;;5.40;99.00;;;;;;4988182;28;20026;-73
2022/01/23 07:56:50;;;;;;;46.03;12.43;;;5.50;99.00;;;;;;4986298;28;20389;-73
2022/01/23 07:59:16;;;;;;;35.20;12.40;;;5.50;99.00;;;;;;4985016;28;20029;-73
2022/01/23 08:01:41;;;;;;;38.65;12.15;;;5.50;99.00;;;;;;4987108;28;20023;-72
2022/01/23 08:04:07;;;;;;;48.22;13.52;;;5.60;99.00;;;;;;4987406;28;20530;-72
2022/01/23 08:06:40;;;;;;;39.00;12.65;;;5.50;99.10;;;;;;4992197;28;20026;-73
2022/01/23 08:09:07;;;;;;;50.65;13.20;;;5.60;99.10;;;;;;4996163;28;20394;-73
2022/01/23 08:11:32;;;;;;;49.17;12.80;;;5.60;99.10;;;;;;4985371;28;20323;-73
2022/01/23 08:13:58;;;;;;;41.70;12.48;;;5.60;99.00;;;;;;4989588;28;20027;-73
2022/01/23 08:16:23;;;;;;;57.30;13.65;;;5.60;99.10;;;;;;4983861;28;20046;-73
2022/01/23 08:18:49;;;;;;;49.05;12.80;;;5.60;99.00;;;;;;4984500;28;20576;-73
2022/01/23 08:21:14;;;;;;;54.10;13.35;;;5.70;99.10;;;;;;4986938;28;20026;-73
2022/01/23 08:23:40;;;;;;;41.83;12.43;;;5.70;99.10;;;;;;4985684;28;20129;-73
2022/01/23 08:26:06;;;;;;;46.92;13.05;;;5.70;99.10;;;;;;4987440;28;20405;-75
2022/01/23 08:28:32;;;;;;;49.08;12.88;;;5.70;99.10;;;;;;4991158;28;20054;-75
2022/01/23 08:30:57;;;;;;;44.65;12.88;;;5.70;99.10;;;;;;4988543;28;20022;-75
2022/01/23 08:33:24;;;;;;;46.55;13.43;;;5.70;99.00;;;;;;4996343;28;20038;-75
2022/01/23 08:35:53;;;;;;;50.55;14.45;;;5.80;99.10;;;;;;4992649;28;20061;-75
2022/01/23 08:38:18;;;;;;;56.25;14.02;;;5.80;99.00;;;;;;4992648;28;20030;-75
2022/01/23 08:43:11;;;;;;;38.40;12.45;;;5.80;99.10;;;;;;4988809;28;20034;-75
2022/01/23 08:45:38;;;;;;;41.20;12.55;;;5.80;99.10;;;;;;4988049;28;20048;-75
2022/01/23 08:48:04;;;;;;;46.55;12.90;;;5.80;99.10;;;;;;4982941;28;20034;-75
2022/01/23 08:50:30;;;;;;;35.80;10.77;;;5.90;99.10;;;;;;4984973;28;20036;-75
2022/01/23 08:52:55;;;;;;;45.55;13.00;;;5.90;99.10;;;;;;4984774;28;20101;-75
2022/01/23 08:55:21;;;;;;;33.22;11.00;;;5.90;99.10;;;;;;4991523;28;20053;-75
2022/01/23 08:57:47;;;;;;;36.15;11.88;;;5.90;99.00;;;;;;4999451;28;20113;-75
2022/01/23 09:00:14;;;;;;;45.17;12.20;;;5.90;99.10;;;;;;4981655;28;20030;-75
2022/01/23 09:02:40;;;;;;;35.03;10.52;;;5.90;99.00;;;;;;4992051;28;20371;-75
2022/01/23 09:05:06;;;;;;;30.45;11.05;;;5.90;99.10;;;;;;4991503;28;20041;-75
2022/01/23 09:07:31;;;;;;;29.90;10.63;;;5.90;99.00;;;;;;4991703;28;20073;-75
2022/01/23 09:10:02;;;;;;;29.00;9.95;;;6.00;99.00;;;;;;4988222;28;20041;-74
2022/01/23 09:15:06;;;;;;;33.30;11.65;;;6.00;99.00;;;;;;4983942;28;20161;-75
2022/01/23 09:17:33;;;;;;;44.42;11.27;;;6.00;99.10;;;;;;4992286;28;20045;-74
2022/01/23 09:19:58;;;;;;;24.90;10.23;;;6.10;99.00;;;;;;4988736;28;20026;-75
2022/01/23 09:22:28;;;;;;;26.02;10.30;;;6.00;99.00;;;;;;4988899;28;20046;-75
2022/01/23 09:24:54;;;;;;;35.47;11.00;;;6.10;99.00;;;;;;4995841;28;20045;-75
2022/01/23 09:27:20;;;;;;;37.25;11.30;;;6.10;99.00;;;;;;4990163;28;20077;-75
2022/01/23 09:29:49;;;;;;;30.58;10.57;;;6.10;99.00;;;;;;4991200;28;20072;-75
2022/01/23 09:32:17;;;;;;;30.17;10.15;;;6.10;99.00;;;;;;4989456;28;20037;-75
2022/01/23 09:34:44;;;;;;;29.48;10.05;;;6.10;99.00;;;;;;4988313;28;20102;-74
2022/01/23 09:37:12;;;;;;;25.50;9.75;;;6.10;99.00;;;;;;4986928;28;20503;-75
2022/01/23 09:39:40;;;;;;;27.33;10.32;;;6.10;99.00;;;;;;4987113;28;20030;-74
2022/01/23 09:42:12;;;;;;;24.42;9.52;;;6.10;99.00;;;;;;4989792;28;20474;-75
2022/01/23 09:44:47;;;;;;;27.60;10.23;;;6.10;99.00;;;;;;4983591;28;20720;-77
2022/01/23 09:47:14;;;;;;;26.08;10.05;;;6.20;99.00;;;;;;4979185;28;20517;-76
2022/01/23 09:49:42;;;;;;;28.35;11.00;;;6.20;99.00;;;;;;4985627;28;20125;-74
2022/01/23 09:52:10;;;;;;;31.60;10.45;;;6.20;99.00;;;;;;4987428;28;20054;-73
2022/01/23 09:54:38;;;;;;;28.70;11.05;;;6.20;99.00;;;;;;4983139;28;20431;-74
2022/01/23 09:57:06;;;;;;;30.45;11.30;;;6.20;99.00;;;;;;4987158;28;20042;-75
2022/01/23 09:59:31;;;;;;;29.38;10.90;;;6.30;99.00;;;;;;4986731;28;20100;-75
2022/01/23 10:01:57;;;;;;;31.48;10.60;;;6.30;99.00;;;;;;4986872;28;20450;-75
2022/01/23 10:04:25;;;;;;;27.33;10.65;;;6.30;99.00;;;;;;4988913;28;20410;-74
2022/01/23 10:06:52;;;;;;;27.20;10.18;;;6.30;99.00;;;;;;4986688;28;20037;-73
2022/01/23 10:09:20;;;;;;;27.30;10.10;;;6.30;99.00;;;;;;4982988;28;20030;-75
2022/01/23 10:11:47;;;;;;;31.20;10.80;;;6.40;99.00;;;;;;4977408;28;20061;-75
2022/01/23 10:14:14;;;;;;;33.45;10.90;;;6.40;98.90;;;;;;4987251;28;20051;-75
2022/01/23 10:16:39;;;;;;;29.58;10.57;;;6.40;99.00;;;;;;4988596;28;20102;-76
2022/01/23 10:19:07;;;;;;;26.60;10.82;;;6.40;98.90;;;;;;4989894;28;20034;-75
2022/01/23 10:21:35;;;;;;;22.98;9.18;;;6.40;98.90;;;;;;4982431;28;20397;-75
2022/01/23 10:24:02;;;;;;;26.27;9.45;;;6.40;98.90;;;;;;4984514;28;20109;-75
2022/01/23 10:26:49;;;;;;;19.05;9.13;;;6.30;98.90;;;;;;4990534;28;20041;-75
2022/01/23 10:29:26;;;;;;;22.02;9.32;;;6.30;98.90;;;;;;4987075;28;20034;-74
2022/01/23 10:32:20;;;;;;;20.40;9.73;;;6.30;98.90;;;;;;4982795;28;20113;-75
2022/01/23 10:34:47;;;;;;;20.08;8.82;;;6.30;98.90;;;;;;4988139;28;20436;-75
2022/01/23 10:37:40;;;;;;;26.45;9.02;;;6.40;98.90;;;;;;4985613;28;20054;-75
2022/01/23 10:40:31;;;;;;;20.27;9.60;;;6.40;98.90;;;;;;4989191;28;20515;-75
2022/01/23 10:48:40;;;;;;;22.08;9.02;;;6.40;98.90;;;;;;4983392;28;20084;-75
2022/01/23 10:51:14;;;;;;;19.13;9.00;;;6.40;98.80;;;;;;4984202;28;20022;-75
2022/01/23 10:54:01;;;;;;;23.95;8.73;;;6.40;98.80;;;;;;4978005;28;20014;-76
2022/01/23 10:56:28;;;;;;;21.27;9.95;;;6.40;98.80;;;;;;4983487;28;20149;-76
2022/01/23 10:59:12;;;;;;;24.23;10.23;;;6.40;98.80;;;;;;4984011;28;20049;-76
2022/01/23 11:01:57;;;;;;;21.02;9.15;;;6.50;98.80;;;;;;4984821;28;21324;-75
2022/01/23 11:04:23;;;;;;;19.63;8.18;;;6.50;98.80;;;;;;4977968;28;20031;-75
2022/01/23 11:06:55;;;;;;;23.10;9.43;;;6.50;98.80;;;;;;4980389;28;20025;-73
2022/01/23 11:09:26;;;;;;;18.73;8.57;;;6.50;98.80;;;;;;4985869;28;20057;-73
2022/01/23 11:11:59;;;;;;;15.70;8.38;;;6.50;98.80;;;;;;4986748;28;20069;-74
2022/01/23 11:17:23;;;;;;;19.27;8.18;;;6.50;98.70;;;;;;4990590;28;20358;-73
2022/01/23 11:19:55;;;;;;;16.50;7.90;;;6.60;98.70;;;;;;4989117;28;20050;-73
2022/01/23 11:22:24;;;;;;;17.17;8.38;;;6.50;98.70;;;;;;4978447;28;20030;-74
2022/01/23 11:24:50;;;;;;;23.35;8.20;;;6.60;98.70;;;;;;4988301;28;20029;-73
2022/01/23 11:27:19;;;;;;;19.88;8.40;;;6.60;98.70;;;;;;4989550;28;20038;-73
2022/01/23 11:29:55;;;;;;;19.55;7.25;;;6.60;98.70;;;;;;4989593;28;20021;-74
2022/01/23 11:32:23;;;;;;;19.98;7.70;;;6.70;98.70;;;;;;4984419;28;20038;-74
2022/01/23 11:34:54;;;;;;;16.13;7.13;;;6.70;98.60;;;;;;4989658;28;20033;-73
2022/01/23 11:37:19;;;;;;;14.02;6.47;;;6.70;98.60;;;;;;4976886;28;20366;-73
2022/01/23 11:39:51;;;;;;;16.55;7.40;;;6.70;98.50;;;;;;4990372;28;20045;-73
2022/01/23 11:51:02;;;;;;;12.30;5.80;;;6.90;98.50;;;;;;4989829;28;20033;-73
2022/01/23 11:53:52;;;;;;;13.85;6.18;;;6.90;98.40;;;;;;4979672;28;20441;-73
2022/01/23 11:56:28;;;;;;;15.65;6.50;;;6.90;98.40;;;;;;4970878;28;20038;-74
2022/01/23 11:58:55;;;;;;;13.98;6.25;;;7.00;98.30;;;;;;4980898;28;20109;-73
2022/01/23 12:01:25;;;;;;;17.83;7.05;;;7.10;98.40;;;;;;4987851;28;20461;-73
2022/01/23 12:04:06;;;;;;;15.80;6.20;;;7.10;98.40;;;;;;4981995;28;20454;-74
2022/01/23 12:06:32;;;;;;;16.63;6.60;;;7.10;98.10;;;;;;4983553;28;20031;-73
2022/01/23 12:09:13;;;;;;;13.38;5.97;;;7.10;98.00;;;;;;4996451;28;20034;-73
2022/01/23 12:11:53;;;;;;;11.32;5.60;;;7.20;98.10;;;;;;4977821;28;20023;-74
2022/01/23 12:16:51;;;;;;;11.13;5.78;;;7.40;98.00;;;;;;4991647;28;20038;-73
2022/01/23 12:19:23;;;;;;;15.65;5.18;;;7.40;98.00;;;;;;4986645;28;20041;-73
2022/01/23 12:21:52;;;;;;;9.93;4.90;;;7.30;97.90;;;;;;4992939;28;20018;-73
2022/01/23 12:24:19;;;;;;;14.93;5.20;;;7.40;97.90;;;;;;4983970;28;20022;-73
2022/01/23 12:26:47;;;;;;;14.05;4.57;;;7.40;97.50;;;;;;4990961;28;20034;-73
2022/01/23 12:29:15;;;;;;;11.13;4.72;;;7.30;97.50;;;;;;4993931;28;20018;-74
2022/01/23 12:31:42;;;;;;;9.32;4.63;;;7.30;97.20;;;;;;4984276;28;20031;-74
2022/01/23 12:34:08;;;;;;;11.50;4.38;;;7.30;97.20;;;;;;4986931;28;20035;-73
2022/01/23 12:36:37;;;;;;;11.68;4.50;;;7.30;96.80;;;;;;4992792;28;20042;-73
2022/01/23 12:39:12;;;;;;;7.97;4.25;;;7.30;97.10;;;;;;4996058;28;20075;-73
2022/01/23 12:41:37;;;;;;;8.65;4.80;;;7.40;97.00;;;;;;4987303;28;20478;-73
2022/01/23 12:44:04;;;;;;;9.10;4.15;;;7.40;96.90;;;;;;4987998;28;20124;-73
2022/01/23 12:46:41;;;;;;;6.25;4.10;;;7.40;96.40;;;;;;4983115;28;20106;-73
2022/01/23 12:49:16;;;;;;;8.60;3.85;;;7.40;96.30;;;;;;4992121;28;20156;-73
2022/01/23 12:51:42;;;;;;;7.57;3.85;;;7.40;96.20;;;;;;4993359;28;20048;-74
2022/01/23 12:54:17;;;;;;;6.72;3.78;;;7.40;96.00;;;;;;4992881;28;20439;-73
2022/01/23 12:56:45;;;;;;;8.77;3.63;;;7.40;95.90;;;;;;4999174;28;20034;-73
2022/01/23 12:59:20;;;;;;;8.02;3.30;;;7.40;96.00;;;;;;4990448;28;20599;-74
2022/01/23 13:01:47;;;;;;;10.00;3.75;;;7.40;96.00;;;;;;4989268;28;20023;-73
2022/01/23 13:04:15;;;;;;;11.35;3.25;;;7.40;96.00;;;;;;4985376;28;20030;-73
2022/01/23 13:06:52;;;;;;;6.25;3.30;;;7.40;96.00;;;;;;4992872;28;20030;-74
2022/01/23 13:14:44;;;;;;;7.05;3.05;;;7.40;95.80;;;;;;4992988;28;20046;-73
2022/01/23 13:17:31;;;;;;;5.65;3.22;;;7.30;95.80;;;;;;4975527;28;20437;-73
2022/01/23 13:26:24;;;;;;;10.27;3.00;;;7.30;95.70;;;;;;4983482;28;20534;-74
2022/01/23 13:30:48;;;;;;;5.57;3.42;;;7.30;95.70;;;;;;4987358;28;20030;-73
2022/01/23 13:33:21;;;;;;;8.95;3.67;;;7.30;95.60;;;;;;4992201;28;20446;-74
2022/01/23 13:35:51;;;;;;;8.82;3.95;;;7.30;95.60;;;;;;4980871;28;20014;-73
2022/01/23 13:38:18;;;;;;;13.13;3.70;;;7.30;95.50;;;;;;4999130;28;20100;-73
2022/01/23 13:40:44;;;;;;;7.10;2.95;;;7.30;95.50;;;;;;4990508;28;20405;-74
2022/01/23 13:49:13;;;;;;;5.85;3.20;;;7.30;95.60;;;;;;4992043;28;20056;-73
2022/01/23 13:59:35;;;;;;;5.35;3.15;;;7.20;95.70;;;;;;4987609;28;20603;-73
2022/01/23 14:02:17;;;;;;;7.18;3.30;;;7.20;95.70;;;;;;4990090;28;20029;-74
2022/01/23 14:04:49;;;;;;;5.43;3.47;;;7.20;95.70;;;;;;4990166;28;20022;-74
2022/01/23 14:07:24;;;;;;;8.52;3.78;;;7.30;95.80;;;;;;4976770;28;20050;-73
2022/01/23 14:09:51;;;;;;;9.23;4.03;;;7.20;95.80;;;;;;4981271;28;20034;-73
2022/01/23 14:12:19;;;;;;;6.68;3.50;;;7.20;95.90;;;;;;4983969;28;20019;-73
2022/01/23 14:14:56;;;;;;;4.57;3.40;;;7.20;95.90;;;;;;4981785;28;20560;-73
2022/01/23 14:17:24;;;;;;;11.70;3.50;;;7.30;96.00;;;;;;4986712;28;20118;-73
2022/01/23 14:20:04;;;;;;;12.15;3.13;;;7.20;95.80;;;;;;4989968;28;20029;-73
2022/01/23 14:22:36;;;;;;;8.00;2.58;;;7.20;95.70;;;;;;4992003;28;20121;-73
2022/01/23 14:25:14;;;;;;;7.88;2.47;;;7.10;95.50;;;;;;4979057;28;20018;-73
2022/01/23 14:27:42;;;;;;;5.63;1.98;;;7.20;95.00;;;;;;4998188;28;20030;-73
2022/01/23 14:30:12;;;;;;;3.63;1.98;;;7.10;94.60;;;;;;4986510;28;20077;-77
2022/01/23 14:32:46;;;;;;;7.78;2.40;;;7.10;94.60;;;;;;4987531;28;20026;-72
2022/01/23 14:35:18;;;;;;;4.90;2.08;;;7.10;94.60;;;;;;4991683;28;20373;-74
2022/01/23 14:37:46;;;;;;;5.03;1.98;;;7.10;94.60;;;;;;4991074;28;20343;-74
2022/01/23 14:40:16;;;;;;;4.50;1.90;;;7.10;94.70;;;;;;4988668;28;20034;-74
2022/01/23 14:43:00;;;;;;;3.87;1.70;;;7.10;94.60;;;;;;4989590;28;20373;-75
2022/01/23 14:45:28;;;;;;;5.88;2.28;;;7.10;94.80;;;;;;4982649;28;20036;-75
2022/01/23 14:47:54;;;;;;;5.93;2.03;;;7.10;94.90;;;;;;4986371;28;20088;-75
2022/01/23 14:50:24;;;;;;;6.53;2.38;;;7.10;95.00;;;;;;4984409;28;20260;-75
2022/01/23 14:52:50;;;;;;;5.32;2.10;;;7.10;95.00;;;;;;4995149;28;20374;-75
2022/01/23 14:55:17;;;;;;;4.80;2.50;;;7.10;95.10;;;;;;4991353;28;20366;-75
2022/01/23 14:57:44;;;;;;;11.38;2.80;;;7.00;95.10;;;;;;4978440;28;20030;-74
2022/01/23 15:00:11;;;;;;;5.97;2.70;;;7.00;95.10;;;;;;4985370;28;20133;-75
2022/01/23 15:02:37;;;;;;;8.38;1.95;;;7.00;95.30;;;;;;5000266;28;20083;-74
2022/01/23 15:05:03;;;;;;;3.97;2.13;;;7.00;95.30;;;;;;4981725;28;20070;-75
2022/01/23 15:07:41;;;;;;;5.38;2.40;;;7.00;95.40;;;;;;4990566;28;20343;-75
2022/01/23 15:10:10;;;;;;;5.10;2.90;;;7.00;95.50;;;;;;4993844;28;20124;-75
2022/01/23 15:12:37;;;;;;;10.18;2.72;;;7.00;95.40;;;;;;4998959;28;20033;-75
2022/01/23 15:15:04;;;;;;;9.20;2.33;;;7.00;95.50;;;;;;4987349;28;20058;-75
2022/01/23 15:17:29;;;;;;;6.63;2.42;;;6.90;95.50;;;;;;4978006;28;20034;-75
2022/01/23 15:19:55;;;;;;;9.60;2.47;;;6.90;95.30;;;;;;4981960;28;20038;-75
2022/01/23 15:22:22;;;;;;;8.95;2.20;;;6.90;95.20;;;;;;4988443;28;20027;-75
2022/01/23 15:24:48;;;;;;;5.05;2.58;;;6.90;95.00;;;;;;4988546;28;20370;-74
2022/01/23 15:27:14;;;;;;;7.93;2.15;;;6.90;95.10;;;;;;4987901;28;20030;-75
2022/01/23 15:29:40;;;;;;;6.82;2.72;;;6.80;95.20;;;;;;4981549;28;20026;-75
2022/01/23 15:32:06;;;;;;;7.85;2.90;;;6.90;95.30;;;;;;4983361;28;20213;-75
2022/01/23 15:34:35;;;;;;;9.70;2.90;;;6.80;95.30;;;;;;4989732;28;20018;-75
2022/01/23 15:37:00;;;;;;;8.77;3.22;;;6.80;95.30;;;;;;4985454;28;20034;-75
2022/01/23 15:39:26;;;;;;;7.55;3.35;;;6.80;95.40;;;;;;4997950;28;20045;-75
2022/01/23 15:41:52;;;;;;;6.20;2.95;;;6.80;95.50;;;;;;4980818;28;20031;-76
2022/01/23 15:44:17;;;;;;;10.02;2.92;;;6.80;95.50;;;;;;4986981;28;20102;-75
2022/01/23 15:46:43;;;;;;;9.63;2.88;;;6.80;95.60;;;;;;4982767;28;20034;-75
2022/01/23 15:49:10;;;;;;;5.90;2.40;;;6.70;95.70;;;;;;4982859;28;20311;-75
2022/01/23 15:51:36;;;;;;;5.35;2.35;;;6.70;95.80;;;;;;4984966;28;20069;-75
2022/01/23 15:54:03;;;;;;;4.80;2.22;;;6.60;95.90;;;;;;4990385;28;20030;-75
2022/01/23 15:56:29;;;;;;;5.82;2.65;;;6.60;96.00;;;;;;4991064;28;20478;-74
2022/01/23 15:58:54;;;;;;;10.55;2.80;;;6.60;96.20;;;;;;4991038;28;20031;-74
2022/01/23 16:01:19;;;;;;;8.20;2.85;;;6.60;96.30;;;;;;4987757;28;20503;-73
2022/01/23 16:03:46;;;;;;;4.22;2.30;;;6.50;96.40;;;;;;4989859;28;20072;-74